createdAt,value
2018-12-29T00:00:58.789Z,38.17
2018-12-29T00:03:28.782Z,33.27
2018-12-29T00:06:17.838Z,37.93
2018-12-29T00:08:47.802Z,35.30
2018-12-29T00:11:17.788Z,41.43
2018-12-29T00:13:47.796Z,36.57
2018-12-29T00:16:17.762Z,31.00
2018-12-29T00:18:47.841Z,37.93
2018-12-29T00:21:17.845Z,31.77
2018-12-29T00:23:47.869Z,34.17
2018-12-29T00:26:17.875Z,37.40
2018-12-29T00:28:47.822Z,36.80
2018-12-29T00:31:17.840Z,29.97
2018-12-29T00:33:47.887Z,47.90
2018-12-29T00:36:17.862Z,39.57
2018-12-29T00:38:53.913Z,36.10
2018-12-29T00:41:23.859Z,32.07
2018-12-29T00:44:12.917Z,32.97
2018-12-29T00:47:01.841Z,37.57
2018-12-29T00:49:31.758Z,37.63
2018-12-29T00:52:20.938Z,37.78
2018-12-29T00:57:32.250Z,33.63
2018-12-29T01:00:02.188Z,38.97
2018-12-29T01:02:32.193Z,33.67
2018-12-29T01:05:13.871Z,40.70
2018-12-29T01:07:43.817Z,38.08
2018-12-29T01:10:13.789Z,40.60
2018-12-29T01:12:43.703Z,36.53
2018-12-29T01:15:25.401Z,36.17
2018-12-29T01:20:58.189Z,34.30
2018-12-29T01:23:28.290Z,32.17
2018-12-29T01:25:58.252Z,38.30
2018-12-29T01:31:30.682Z,29.37
2018-12-29T01:42:38.484Z,44.17
2018-12-29T01:45:08.589Z,40.70
2018-12-29T01:47:38.562Z,32.70
2018-12-29T01:53:21.603Z,36.47
2018-12-29T01:55:51.578Z,32.77
2018-12-29T01:58:21.544Z,33.70
2018-12-29T02:00:51.510Z,34.80
2018-12-29T02:03:21.424Z,31.97
2018-12-29T02:06:10.290Z,38.23
2018-12-29T02:11:53.635Z,30.23
2018-12-29T02:14:23.622Z,35.33
2018-12-29T02:16:53.832Z,33.60
2018-12-29T02:19:23.769Z,38.33
2018-12-29T02:21:53.737Z,37.90
2018-12-29T02:24:23.730Z,40.73
2018-12-29T02:26:53.782Z,32.83
2018-12-29T02:29:23.713Z,36.30
2018-12-29T02:31:53.699Z,36.80
2018-12-29T02:34:23.625Z,32.60
2018-12-29T02:36:53.664Z,38.97
2018-12-29T02:39:23.675Z,33.23
2018-12-29T02:41:53.687Z,30.00
2018-12-29T02:44:23.621Z,33.27
2018-12-29T02:47:12.520Z,33.07
2018-12-29T02:49:42.477Z,36.03
2018-12-29T02:52:12.603Z,33.20
2018-12-29T02:57:42.630Z,32.90
2018-12-29T03:00:12.593Z,45.30
2018-12-29T03:03:07.037Z,35.17
2018-12-29T03:05:37.008Z,46.87
2018-12-29T03:08:07.151Z,35.58
2018-12-29T03:10:37.103Z,32.33
2018-12-29T03:13:07.107Z,33.70
2018-12-29T03:26:55.736Z,38.33
2018-12-29T03:29:32.685Z,33.60
2018-12-29T03:32:02.677Z,32.70
2018-12-29T03:34:32.738Z,31.33
2018-12-29T03:37:02.729Z,34.63
2018-12-29T03:39:32.649Z,44.50
2018-12-29T03:42:02.619Z,40.87
2018-12-29T03:47:45.574Z,34.57
2018-12-29T03:50:15.549Z,28.73
2018-12-29T03:52:45.567Z,30.93
2018-12-29T03:55:34.587Z,38.40
2018-12-29T03:58:23.534Z,33.03
2018-12-29T04:00:53.549Z,37.90
2018-12-29T04:03:23.614Z,43.73
2018-12-29T04:05:53.545Z,38.80
2018-12-29T04:08:23.491Z,39.05
2018-12-29T04:10:53.492Z,39.45
2018-12-29T04:13:23.533Z,31.27
2018-12-29T04:15:58.001Z,35.63
2018-12-29T04:18:34.190Z,29.40
2018-12-29T04:21:04.171Z,34.83
2018-12-29T04:23:33.130Z,34.07
2018-12-29T04:29:16.549Z,33.63
2018-12-29T04:31:46.483Z,38.80
2018-12-29T04:34:16.419Z,31.17
2018-12-29T04:36:46.359Z,28.53
2018-12-29T04:39:35.270Z,30.47
2018-12-29T04:42:05.356Z,32.13
2018-12-29T04:44:35.343Z,29.90
2018-12-29T04:47:24.442Z,36.83
2018-12-29T04:49:54.398Z,30.80
2018-12-29T04:53:02.667Z,39.70
2018-12-29T04:55:51.830Z,35.98
2018-12-29T04:58:22.090Z,41.03
2018-12-29T05:00:52.061Z,40.57
2018-12-29T05:03:22.030Z,35.17
2018-12-29T05:05:51.991Z,28.17
2018-12-29T05:08:21.960Z,34.75
2018-12-29T05:10:51.950Z,34.80
2018-12-29T05:13:21.845Z,26.90
2018-12-29T05:15:51.818Z,31.83
2018-12-29T05:18:42.282Z,25.43
2018-12-29T05:21:12.255Z,34.87
2018-12-29T05:23:42.196Z,28.97
2018-12-29T05:26:12.172Z,42.07
2018-12-29T05:28:42.212Z,33.73
2018-12-29T05:34:20.172Z,28.25
2018-12-29T05:36:50.109Z,28.85
2018-12-29T05:39:20.112Z,34.63
2018-12-29T05:44:56.955Z,31.30
2018-12-29T05:47:26.809Z,35.47
2018-12-29T05:49:56.939Z,37.20
2018-12-29T05:52:26.897Z,39.80
2018-12-29T05:54:56.857Z,38.47
2018-12-29T05:57:26.888Z,29.90
2018-12-29T06:02:51.534Z,37.40
2018-12-29T06:05:21.535Z,36.10
2018-12-29T06:07:51.575Z,35.30
2018-12-29T06:10:21.677Z,34.00
2018-12-29T06:12:52.059Z,32.13
2018-12-29T06:15:41.031Z,31.40
2018-12-29T06:18:11.111Z,26.73
2018-12-29T06:20:41.175Z,35.57
2018-12-29T06:23:11.366Z,28.47
2018-12-29T06:25:41.407Z,35.07
2018-12-29T06:28:11.381Z,34.33
2018-12-29T06:30:41.445Z,30.30
2018-12-29T06:33:11.403Z,27.90
2018-12-29T06:35:41.421Z,30.10
2018-12-29T06:38:17.498Z,37.30
2018-12-29T06:40:47.714Z,40.90
2018-12-29T06:43:17.937Z,29.43
2018-12-29T06:45:48.123Z,39.63
2018-12-29T06:48:18.500Z,31.13
2018-12-29T06:50:48.645Z,36.50
2018-12-29T06:53:18.843Z,26.70
2018-12-29T06:55:48.884Z,29.70
2018-12-29T06:58:19.205Z,31.63
2018-12-29T07:00:49.273Z,26.37
2018-12-29T07:03:19.471Z,30.17
2018-12-29T07:05:49.596Z,31.90
2018-12-29T07:08:19.754Z,29.40
2018-12-29T07:10:49.957Z,31.07
2018-12-29T07:13:20.210Z,34.97
2018-12-29T07:15:50.348Z,26.63
2018-12-29T07:18:20.465Z,27.77
2018-12-29T07:20:50.789Z,33.57
2018-12-29T07:23:21.174Z,33.78
2018-12-29T07:25:52.235Z,29.92
2018-12-29T07:28:22.345Z,32.60
2018-12-29T07:31:11.424Z,30.23
2018-12-29T07:33:41.452Z,26.60
2018-12-29T07:36:11.378Z,29.20
2018-12-29T07:38:53.677Z,34.80
2018-12-29T07:41:23.757Z,32.73
2018-12-29T07:43:53.663Z,31.63
2018-12-29T07:46:23.599Z,32.40
2018-12-29T07:48:53.521Z,28.80
2018-12-29T07:51:23.440Z,32.60
2018-12-29T07:53:53.563Z,28.47
2018-12-29T07:56:23.555Z,30.93
2018-12-29T07:58:53.806Z,29.80
2018-12-29T08:01:23.756Z,26.90
2018-12-29T08:03:53.741Z,31.30
2018-12-29T08:06:23.778Z,27.77
2018-12-29T08:09:12.898Z,33.40
2018-12-29T08:11:42.925Z,30.60
2018-12-29T08:16:56.906Z,37.17
2018-12-29T08:19:45.386Z,27.30
2018-12-29T08:22:15.375Z,23.73
2018-12-29T08:25:04.527Z,25.80
2018-12-29T08:27:34.691Z,28.20
2018-12-29T08:30:16.495Z,24.67
2018-12-29T08:32:46.410Z,26.40
2018-12-29T08:35:16.355Z,35.70
2018-12-29T08:37:46.340Z,29.77
2018-12-29T08:40:16.414Z,32.90
2018-12-29T08:42:46.434Z,25.93
2018-12-29T08:45:35.629Z,29.00
2018-12-29T08:48:05.609Z,31.40
2018-12-29T08:50:35.528Z,23.93
2018-12-29T08:53:44.112Z,24.90
2018-12-29T08:56:14.156Z,25.80
2018-12-29T08:59:03.098Z,27.35
2018-12-29T09:01:33.094Z,21.63
2018-12-29T09:04:03.144Z,23.03
2018-12-29T09:06:33.244Z,24.23
2018-12-29T09:09:03.233Z,25.57
2018-12-29T09:11:33.349Z,22.93
2018-12-29T09:14:03.288Z,29.10
2018-12-29T09:16:33.224Z,24.60
2018-12-29T09:19:03.274Z,24.70
2018-12-29T09:21:33.301Z,28.70
2018-12-29T09:24:22.170Z,32.13
2018-12-29T09:26:52.644Z,22.58
2018-12-29T09:29:41.717Z,28.27
2018-12-29T09:32:11.670Z,29.23
2018-12-29T09:34:41.630Z,26.90
2018-12-29T09:37:49.643Z,31.68
2018-12-29T09:43:13.217Z,28.17
2018-12-29T09:45:43.209Z,36.87
2018-12-29T09:48:32.300Z,28.03
2018-12-29T09:51:21.506Z,21.77
2018-12-29T09:53:51.598Z,28.63
2018-12-29T09:56:40.679Z,29.02
2018-12-29T09:59:10.755Z,27.73
2018-12-29T10:02:18.767Z,24.00
2018-12-29T10:04:48.768Z,27.33
2018-12-29T10:07:18.866Z,22.37
2018-12-29T10:09:48.956Z,23.20
2018-12-29T10:12:18.859Z,26.10
2018-12-29T10:14:48.812Z,23.27
2018-12-29T10:17:18.716Z,27.17
2018-12-29T10:19:49.109Z,25.75
2018-12-29T10:22:19.127Z,31.93
2018-12-29T10:24:49.752Z,25.07
2018-12-29T10:27:20.174Z,19.85
2018-12-29T10:29:50.452Z,25.10
2018-12-29T10:32:20.480Z,23.87
2018-12-29T10:34:50.587Z,26.90
2018-12-29T10:37:21.004Z,24.73
2018-12-29T10:39:50.888Z,31.17
2018-12-29T10:42:20.890Z,24.80
2018-12-29T10:44:50.074Z,27.40
2018-12-29T10:47:20.175Z,25.37
2018-12-29T10:49:50.571Z,23.70
2018-12-29T10:57:44.698Z,28.17
2018-12-29T11:00:15.056Z,22.90
2018-12-29T11:02:45.412Z,27.17
2018-12-29T11:05:15.601Z,25.90
2018-12-29T11:07:45.928Z,17.17
2018-12-29T11:10:16.415Z,26.03
2018-12-29T11:12:46.754Z,24.27
2018-12-29T11:15:29.495Z,27.97
2018-12-29T11:17:54.528Z,20.03
2018-12-29T11:20:43.880Z,21.10
2018-12-29T11:23:13.829Z,21.40
2018-12-29T11:25:43.874Z,21.97
2018-12-29T11:28:15.508Z,20.60
2018-12-29T11:31:04.771Z,24.80
2018-12-29T11:33:53.715Z,23.50
2018-12-29T11:39:17.927Z,27.57
2018-12-29T11:41:47.944Z,25.03
2018-12-29T11:44:17.852Z,22.60
2018-12-29T11:46:47.863Z,22.40
2018-12-29T11:49:36.819Z,24.60
2018-12-29T11:52:06.766Z,21.20
2018-12-29T11:54:36.924Z,26.37
2018-12-29T11:57:06.999Z,23.27
2018-12-29T11:59:37.108Z,18.70
2018-12-29T12:02:07.326Z,22.80
2018-12-29T12:07:37.824Z,20.10
2018-12-29T12:10:08.112Z,20.20
2018-12-29T12:12:41.590Z,27.58
2018-12-29T12:15:12.500Z,27.67
2018-12-29T12:17:57.474Z,21.50
2018-12-29T12:20:27.346Z,24.70
2018-12-29T12:22:57.554Z,25.20
2018-12-29T12:25:30.865Z,31.60
2018-12-29T12:31:11.346Z,28.25
2018-12-29T12:39:20.275Z,22.30
2018-12-29T12:41:50.675Z,19.40
2018-12-29T12:44:43.019Z,24.93
2018-12-29T12:47:33.025Z,24.95
2018-12-29T12:50:17.256Z,22.90
2018-12-29T12:53:07.443Z,23.23
2018-12-29T12:55:38.485Z,28.27
2018-12-29T12:58:11.672Z,31.35
2018-12-29T13:01:03.331Z,26.57
2018-12-29T13:03:37.207Z,32.00
2018-12-29T13:06:40.181Z,38.03
2018-12-29T13:09:25.052Z,39.93
2018-12-29T13:11:55.561Z,36.57
2018-12-29T13:14:26.045Z,39.00
2018-12-29T13:17:15.335Z,29.53
2018-12-29T13:22:36.497Z,22.37
2018-12-29T13:25:26.126Z,34.57
2018-12-29T13:31:08.418Z,38.13
2018-12-29T13:33:50.528Z,41.57
2018-12-29T13:36:29.332Z,36.63
2018-12-29T13:39:00.368Z,41.17
2018-12-29T13:41:53.226Z,38.00
2018-12-29T13:44:24.170Z,41.13
2018-12-29T13:46:54.431Z,35.28
2018-12-29T13:49:24.543Z,36.00
2018-12-29T13:54:43.657Z,46.60
2018-12-29T13:57:14.431Z,42.27
2018-12-29T13:59:44.694Z,47.93
2018-12-29T14:05:09.621Z,32.30
2018-12-29T14:07:40.305Z,37.47
2018-12-29T14:10:10.556Z,34.17
2018-12-29T14:12:41.072Z,37.57
2018-12-29T14:15:32.379Z,29.70
2018-12-29T14:21:09.480Z,35.70
2018-12-29T14:23:39.936Z,26.03
2018-12-29T14:26:10.407Z,29.37
2018-12-29T14:28:41.055Z,37.47
2018-12-29T14:34:11.385Z,35.73
2018-12-29T14:36:42.534Z,30.63
2018-12-29T14:39:35.305Z,31.65
2018-12-29T14:42:18.933Z,43.77
2018-12-29T14:44:58.285Z,28.70
2018-12-29T14:47:47.694Z,31.90
2018-12-29T14:50:17.964Z,40.20
2018-12-29T14:52:47.949Z,26.33
2018-12-29T14:55:17.976Z,31.68
2018-12-29T14:57:47.985Z,21.85
2018-12-29T15:00:18.372Z,23.73
2018-12-29T15:02:48.635Z,26.80
2018-12-29T15:05:19.149Z,26.70
2018-12-29T15:08:08.575Z,25.08
2018-12-29T15:10:39.145Z,22.63
2018-12-29T15:13:09.492Z,27.07
2018-12-29T15:15:42.291Z,21.17
2018-12-29T15:18:12.478Z,28.30
2018-12-29T15:21:03.317Z,22.07
2018-12-29T15:26:17.650Z,25.90
2018-12-29T15:28:47.810Z,24.07
2018-12-29T15:31:17.953Z,21.43
2018-12-29T15:33:48.067Z,15.57
2018-12-29T15:36:18.279Z,24.57
2018-12-29T15:38:48.817Z,19.60
2018-12-29T15:41:19.075Z,25.20
2018-12-29T15:43:56.435Z,21.40
2018-12-29T15:46:26.553Z,25.80
2018-12-29T15:48:56.622Z,21.27
2018-12-29T15:54:36.750Z,15.37
2018-12-29T15:57:06.871Z,21.63
2018-12-29T15:59:36.911Z,21.15
2018-12-29T16:02:30.098Z,24.70
2018-12-29T16:05:00.570Z,18.30
2018-12-29T16:07:30.625Z,29.73
2018-12-29T16:13:01.966Z,27.50
2018-12-29T16:18:12.950Z,19.60
2018-12-29T16:20:43.545Z,20.53
2018-12-29T16:23:13.646Z,28.53
2018-12-29T16:28:46.631Z,19.37
2018-12-29T16:31:16.637Z,21.60
2018-12-29T16:34:06.035Z,20.20
2018-12-29T16:36:43.052Z,13.80
2018-12-29T16:39:13.181Z,18.37
2018-12-29T16:42:02.280Z,18.40
2018-12-29T16:44:32.608Z,19.40
2018-12-29T16:47:14.537Z,13.90
2018-12-29T16:50:03.710Z,20.70
2018-12-29T16:52:33.686Z,15.63
2018-12-29T16:55:03.807Z,18.85
2018-12-29T17:00:37.290Z,17.10
2018-12-29T17:03:07.510Z,13.83
2018-12-29T17:05:37.452Z,11.77
2018-12-29T17:08:27.233Z,15.60
2018-12-29T17:11:15.557Z,12.25
2018-12-29T17:13:57.663Z,10.93
2018-12-29T17:16:27.878Z,13.57
2018-12-29T17:18:57.882Z,11.43
2018-12-29T17:24:09.757Z,20.60
2018-12-29T17:26:39.867Z,25.57
2018-12-29T17:29:21.930Z,20.88
2018-12-29T17:31:51.908Z,11.63
2018-12-29T17:34:21.885Z,15.00
2018-12-29T17:36:59.614Z,13.70
2018-12-29T17:42:37.562Z,8.70
2018-12-29T17:45:08.057Z,7.53
2018-12-29T17:47:57.037Z,8.93
2018-12-29T17:50:27.406Z,9.15
2018-12-29T17:52:57.392Z,9.37
2018-12-29T17:58:09.030Z,10.23
2018-12-29T18:00:51.408Z,10.10
2018-12-29T18:03:21.395Z,7.13
2018-12-29T18:05:51.392Z,7.93
2018-12-29T18:08:41.816Z,7.93
2018-12-29T18:11:18.242Z,10.57
2018-12-29T18:13:48.274Z,8.37
2018-12-29T18:16:37.513Z,8.77
2018-12-29T18:19:07.711Z,11.27
2018-12-29T18:21:37.811Z,12.37
2018-12-29T18:27:10.628Z,10.23
2018-12-29T18:29:40.745Z,8.75
2018-12-29T18:32:29.942Z,11.70
2018-12-29T18:38:02.879Z,12.93
2018-12-29T18:40:52.047Z,8.93
2018-12-29T18:43:22.177Z,9.73
2018-12-29T18:45:52.294Z,11.37
2018-12-29T18:54:07.078Z,13.57
2018-12-29T18:57:15.134Z,14.00
2018-12-29T18:59:45.215Z,22.83
2018-12-29T19:04:56.889Z,12.70
2018-12-29T19:07:33.984Z,13.08
2018-12-29T19:10:11.593Z,13.80
2018-12-29T19:13:00.627Z,12.20
2018-12-29T19:15:30.942Z,20.15
2018-12-29T19:18:01.686Z,17.17
2018-12-29T19:20:32.097Z,14.90
2018-12-29T19:23:02.789Z,17.62
2018-12-29T19:25:33.027Z,16.97
2018-12-29T19:28:10.219Z,18.03
2018-12-29T19:30:40.235Z,17.57
2018-12-29T19:33:31.168Z,16.40
2018-12-29T19:36:08.519Z,19.40
2018-12-29T19:38:38.535Z,15.53
2018-12-29T19:41:27.784Z,14.00
2018-12-29T19:44:17.151Z,13.80
2018-12-29T19:47:08.010Z,13.40
2018-12-29T19:49:40.772Z,18.00
2018-12-29T19:52:10.886Z,15.57
2018-12-29T19:57:29.983Z,24.97
2018-12-29T19:59:59.928Z,19.33
2018-12-29T20:03:11.270Z,17.57
2018-12-29T20:05:47.341Z,18.10
2018-12-29T20:08:36.547Z,15.83
2018-12-29T20:14:09.523Z,21.40
2018-12-29T20:16:39.746Z,16.37
2018-12-29T20:19:10.136Z,17.27
2018-12-29T20:21:40.095Z,19.77
2018-12-29T20:26:51.781Z,17.92
2018-12-29T20:29:22.082Z,18.17
2018-12-29T20:31:52.434Z,16.67
2018-12-29T20:34:22.438Z,15.35
2018-12-29T20:42:16.252Z,6.07
2018-12-29T20:44:46.642Z,5.78
2018-12-29T20:47:16.775Z,6.50
2018-12-29T20:52:36.054Z,8.37
2018-12-29T20:58:09.332Z,2.57
2018-12-29T21:00:46.876Z,4.00
2018-12-29T21:03:16.873Z,5.37
2018-12-29T21:05:47.055Z,3.23
2018-12-29T21:08:37.852Z,2.67
2018-12-29T21:11:07.820Z,3.80
2018-12-29T21:13:57.051Z,2.17
2018-12-29T21:16:27.363Z,7.25
2018-12-29T21:21:52.709Z,7.03
2018-12-29T21:24:22.988Z,7.50
2018-12-29T21:29:56.262Z,2.87
2018-12-29T21:32:33.482Z,7.50
2018-12-29T21:35:03.585Z,6.33
2018-12-29T21:37:45.862Z,2.60
2018-12-29T21:42:57.949Z,5.08
2018-12-29T21:45:41.396Z,3.73
2018-12-29T21:48:25.135Z,3.27
2018-12-29T21:50:55.088Z,2.90
2018-12-29T21:53:25.106Z,2.77
2018-12-29T21:55:55.013Z,5.30
2018-12-29T21:58:27.202Z,2.07
2018-12-29T22:00:57.518Z,7.20
2018-12-29T22:03:27.548Z,7.28
2018-12-29T22:05:57.456Z,4.83
2018-12-29T22:08:27.429Z,2.60
2018-12-29T22:10:57.411Z,1.22
2018-12-29T22:13:27.364Z,1.40
2018-12-29T22:15:57.414Z,2.10
2018-12-29T22:18:27.366Z,2.33
2018-12-29T22:27:10.723Z,1.50
2018-12-29T22:29:40.820Z,1.23
2018-12-29T22:32:10.788Z,2.55
2018-12-29T22:34:40.771Z,1.87
2018-12-29T22:37:10.806Z,3.13
2018-12-29T22:39:40.766Z,5.95
2018-12-29T22:42:10.817Z,2.42
2018-12-29T22:44:40.863Z,1.00
2018-12-29T22:50:15.887Z,2.10
2018-12-29T22:52:45.966Z,3.85
2018-12-29T22:55:16.024Z,1.50
2018-12-29T22:57:46.067Z,3.27
2018-12-29T23:00:34.119Z,4.80
2018-12-29T23:03:04.643Z,2.07
2018-12-29T23:05:36.213Z,1.10
2018-12-29T23:08:06.324Z,1.40
2018-12-29T23:10:36.290Z,1.87
2018-12-29T23:13:06.713Z,0.90
2018-12-29T23:15:38.447Z,2.30
2018-12-29T23:18:08.442Z,1.33
2018-12-29T23:20:38.690Z,1.60
2018-12-29T23:23:27.732Z,2.12
2018-12-29T23:25:58.008Z,1.50
2018-12-29T23:28:28.181Z,1.80
2018-12-29T23:31:05.394Z,2.70
2018-12-29T23:33:35.463Z,1.20
2018-12-29T23:36:10.985Z,1.00
2018-12-29T23:38:43.280Z,1.43
2018-12-29T23:41:13.267Z,3.80
2018-12-29T23:44:04.081Z,1.20
2018-12-29T23:46:34.027Z,0.80
2018-12-29T23:49:04.088Z,1.23
2018-12-29T23:51:34.108Z,2.33
2018-12-29T23:54:04.108Z,1.30
2018-12-29T23:57:03.899Z,3.87
2018-12-29T23:59:53.053Z,1.30
